Latest Coastal Weather Observations for Kalumburu

IDW60701

Issued at 2:35 pm WST Wednesday 22 October 2014 (issued every 10 minutes, with the page automatically refreshed every 10 minutes)

About coastal observations | Map of coastal stations | Coastal observations for WA | Marine services | Other Formats
Station Details ID: 001019 Name: KALUMBURU Lat: -14.30 Lon: 126.65 Height: 23.0 m
Data from the previous 72 hours. | See also: Recent months at Kalumburu
Date/Time
WST
Temp

°C
Wind Pressure Rain
since 9am
mm
Weather Cloud Vis
km
Sea
Height
m
Swell
Dir
 
Speed
knots
Gust
knots
hPa Trend Height
m
Period
s
Dir
22/02:30pm 33.7 N 10 15 1010.3 - 0.0 - - - - - - -
22/02:00pm 33.5 N 11 16 1010.5 - 0.0 - - - - - - -
22/01:30pm 33.9 N 10 15 1010.8 - 0.0 - - - - - - -
22/01:00pm 33.8 N 11 16 1011.1 - 0.0 - - - - - - -
22/12:30pm 34.2 N 12 16 1011.6 - 0.0 - - - - - - -
22/12:00pm 34.5 NNW 12 18 1012.2 - 0.0 - - - - - - -
22/11:30am 34.6 NNW 9 16 1012.8 - 0.0 - - - - - - -
22/11:00am 34.6 NNW 8 13 1013.2 - 0.0 - - - - - - -
22/10:30am 34.1 N 8 13 1013.7 - 0.0 - - - - - - -
22/10:00am 33.0 NNW 6 9 1014.0 - 0.0 - - - - - - -
22/09:30am 33.1 N 3 10 1014.1 - 0.0 - - - - - - -
22/09:00am 31.8 WNW 4 6 1014.2 - 0.0 - - - - - - -
22/08:30am 30.9 WNW 5 8 1014.7 - 0.0 - - - - - - -
22/08:00am 29.9 NW 5 6 1014.8 - 0.0 - - - - - - -
22/07:30am 28.5 NW 5 8 1014.8 - 0.0 - - - - - - -
22/07:00am 28.3 ENE 5 7 1014.8 - 0.0 - - - - - - -
22/06:30am 26.9 CALM 0 5 1013.9 - 0.0 - - - - - - -
22/06:00am 24.5 CALM 0 0 1013.4 - 0.0 - - - - - - -
22/05:30am 23.1 CALM 0 0 1013.2 - 0.0 - - - - - - -
22/05:00am 22.7 CALM 0 0 1013.0 - 0.0 - - - - - - -
22/04:30am 22.9 CALM 0 0 1012.7 - 0.0 - - - - - - -
22/04:00am 23.3 CALM 0 0 1012.3 - 0.0 - - - - - - -
22/03:30am 23.2 CALM 0 0 1012.1 - 0.0 - - - - - - -
22/03:00am 23.3 CALM 0 0 1011.8 - 0.0 - - - - - - -
22/02:30am 23.7 WSW 0 0 1011.8 - 0.0 - - - - - - -
22/02:00am 24.1 CALM 0 0 1011.8 - 0.0 - - - - - - -
22/01:30am 24.1 CALM 0 0 1011.9 - 0.0 - - - - - - -
22/01:00am 24.4 CALM 0 0 1012.0 - 0.0 - - - - - - -
22/12:30am 25.1 WNW 1 4 1012.4 - 0.0 - - - - - - -
22/12:00am 25.7 NW 0 0 1012.9 - 0.0 - - - - - - -
 
Date/Time
WST
Temp

°C
Wind Pressure Rain
since 9am
mm
Weather Cloud Vis
km
Sea
Height
m
Swell
Dir
 
Speed
knots
Gust
knots
hPa Trend Height
m
Period
s
Dir
21/11:30pm 27.0 WNW 3 4 1013.4 - 0.0 - - - - - - -
21/11:00pm 27.0 WNW 2 4 1013.7 - 0.0 - - - - - - -
21/10:30pm 27.8 NW 5 6 1014.1 - 0.0 - - - - - - -
21/10:00pm 27.6 NW 3 5 1014.4 - 0.0 - - - - - - -
21/09:30pm 27.8 NW 4 6 1014.5 - 0.0 - - - - - - -
21/09:00pm 28.1 NNW 5 6 1014.4 - 0.0 - - - - - - -
21/08:30pm 28.3 NW 5 8 1014.3 - 0.0 - - - - - - -
21/08:00pm 28.4 NW 7 9 1014.3 - 0.0 - - - - - - -
21/07:30pm 28.6 NNW 7 11 1014.1 - 0.0 - - - - - - -
21/07:00pm 28.8 NNW 7 10 1013.7 - 0.0 - - - - - - -
21/06:30pm 29.0 N 9 13 1013.4 - 0.0 - - - - - - -
21/06:00pm 29.2 N 8 14 1013.1 - 0.0 - - - - - - -
21/05:30pm 29.4 N 11 16 1012.5 - 0.0 - - - - - - -
21/05:00pm 29.9 N 11 17 1011.9 - 0.0 - - - - - - -
21/04:30pm 30.4 N 13 18 1011.7 - 0.0 - - - - - - -
21/04:00pm 30.8 N 14 20 1011.2 - 0.0 - - - - - - -
21/03:30pm 31.7 N 13 18 1011.1 - 0.0 - - - - - - -
21/03:00pm 32.5 N 11 15 1011.1 - 0.0 - - - - - - -
21/02:30pm 32.7 N 13 18 1011.2 - 0.0 - - - - - - -
21/02:00pm 33.5 NNW 11 16 1011.6 - 0.0 - - - - - - -
21/01:30pm 33.0 N 13 17 1011.7 - 0.0 - - - - - - -
21/01:00pm 33.0 N 12 18 1012.3 - 0.0 - - - - - - -
21/12:30pm 32.5 N 11 18 1012.8 - 0.0 - - - - - - -
21/12:00pm 33.3 N 11 18 1013.2 - 0.0 - - - - - - -
21/11:30am 33.4 N 12 19 1013.9 - 0.0 - - - - - - -
21/11:00am 32.5 N 10 17 1014.3 - 0.0 - - - - - - -
21/10:30am 32.7 N 11 16 1014.8 - 0.0 - - - - - - -
21/10:00am 32.8 N 10 15 1015.2 - 0.0 - - - - - - -
21/09:30am 32.7 N 10 16 1015.4 - 0.0 - - - - - - -
21/09:00am 31.4 NNW 9 15 1015.7 - 0.0 - - - - - - -
21/08:30am 31.3 NNW 7 10 1015.9 - 0.0 - - - - - - -
21/08:00am 30.7 NW 8 12 1015.8 - 0.0 - - - - - - -
21/07:30am 30.9 N 8 12 1015.6 - 0.0 - - - - - - -
21/07:00am 29.1 NNE 7 9 1015.5 - 0.0 - - - - - - -
21/06:30am 27.8 N 5 7 1015.0 - 0.0 - - - - - - -
21/06:00am 25.0 N 6 9 1014.9 - 0.0 - - - - - - -
21/05:30am 22.1 CALM 0 0 1013.8 - 0.0 - - - - - - -
21/05:00am 22.2 CALM 0 0 1013.5 - 0.0 - - - - - - -
21/04:30am 21.9 CALM 0 0 1013.0 - 0.0 - - - - - - -
21/04:00am 22.4 CALM 0 0 1012.6 - 0.0 - - - - - - -
21/03:30am 22.6 CALM 0 0 1012.5 - 0.0 - - - - - - -
21/03:00am 23.3 CALM 0 0 1012.1 - 0.0 - - - - - - -
21/02:30am 23.0 CALM 0 0 1012.0 - 0.0 - - - - - - -
21/02:00am 23.4 CALM 0 0 1012.1 - 0.0 - - - - - - -
21/01:30am 23.5 CALM 0 0 1012.0 - 0.0 - - - - - - -
21/01:00am 23.6 CALM 0 0 1012.1 - 0.0 - - - - - - -
21/12:30am 24.0 S 3 3 1012.4 - 0.0 - - - - - - -
21/12:00am 24.8 CALM 0 0 1012.6 - 0.0 - - - - - - -
 
Date/Time
WST
Temp

°C
Wind Pressure Rain
since 9am
mm
Weather Cloud Vis
km
Sea
Height
m
Swell
Dir
 
Speed
knots
Gust
knots
hPa Trend Height
m
Period
s
Dir
20/11:30pm 25.1 CALM 0 0 1012.9 - 0.0 - - - - - - -
20/11:00pm 25.7 SSW 3 4 1013.3 - 0.0 - - - - - - -
20/10:30pm 25.8 SSW 2 5 1013.6 - 0.0 - - - - - - -
20/10:00pm 25.9 WSW 1 3 1013.8 - 0.0 - - - - - - -
20/09:30pm 25.9 CALM 0 0 1013.8 - 0.0 - - - - - - -
20/09:00pm 26.9 CALM 0 0 1013.8 - 0.0 - - - - - - -
20/08:30pm 27.2 CALM 0 2 1013.8 - 0.0 - - - - - - -
20/08:00pm 28.5 NNW 4 6 1013.7 - 0.0 - - - - - - -
20/07:30pm 28.6 NW 5 7 1013.4 - 0.0 - - - - - - -
20/07:00pm 28.9 NW 6 11 1013.2 - 0.0 - - - - - - -
20/06:30pm 29.2 NNW 7 11 1012.8 - 0.0 - - - - - - -
20/06:00pm 29.3 NNW 8 13 1012.5 - 0.0 - - - - - - -
20/05:30pm 29.5 N 10 13 1012.2 - 0.0 - - - - - - -
20/05:00pm 30.1 N 11 17 1011.6 - 0.0 - - - - - - -
20/04:30pm 30.9 N 12 16 1011.2 - 0.0 - - - - - - -
20/04:00pm 31.2 N 14 20 1010.9 - 0.0 - - - - - - -
20/03:30pm 32.4 N 14 19 1010.6 - 0.0 - - - - - - -
20/03:00pm 32.4 N 15 22 1010.5 - 0.0 - - - - - - -
20/02:30pm 34.1 N 13 21 1010.5 - 0.0 - - - - - - -
20/02:00pm 34.2 N 14 20 1010.3 - 0.0 - - - - - - -
20/01:30pm 34.8 N 12 17 1010.4 - 0.0 - - - - - - -
20/01:00pm 34.9 NW 11 16 1010.9 - 0.0 - - - - - - -
20/12:30pm 34.0 NNW 11 15 1011.7 - 0.0 - - - - - - -
20/12:00pm 34.5 NNW 9 15 1012.2 - 0.0 - - - - - - -
20/11:30am 34.3 N 9 14 1012.9 - 0.0 - - - - - - -
20/11:00am 33.6 NNW 7 14 1013.5 - 0.0 - - - - - - -
20/10:30am 34.0 NNW 7 10 1013.8 - 0.0 - - - - - - -
20/10:00am 33.4 N 6 8 1014.3 - 0.0 - - - - - - -
20/09:30am 32.4 N 6 10 1014.8 - 0.0 - - - - - - -
20/09:00am 32.2 NW 7 11 1015.3 - 0.0 - - - - - - -
20/08:30am 30.9 NNW 7 12 1015.5 - 0.0 - - - - - - -
20/08:00am 30.5 NNW 6 9 1015.7 - 0.0 - - - - - - -
20/07:30am 29.5 N 6 9 1015.6 - 0.0 - - - - - - -
20/07:00am 28.6 WNW 4 6 1015.0 - 0.0 - - - - - - -
20/06:30am 27.5 CALM 0 0 1014.9 - 0.0 - - - - - - -
20/06:00am 24.1 ESE 2 4 1014.5 - 0.0 - - - - - - -
20/05:30am 22.1 CALM 0 0 1013.8 - 0.0 - - - - - - -
20/05:00am 22.1 CALM 0 0 1013.4 - 0.0 - - - - - - -
20/04:30am 21.8 CALM 0 0 1013.2 - 0.0 - - - - - - -
20/04:00am 22.4 ESE 3 4 1012.7 - 0.0 - - - - - - -
20/03:30am 22.1 CALM 0 0 1012.5 - 0.0 - - - - - - -
20/03:00am 22.3 CALM 0 0 1012.1 - 0.0 - - - - - - -
20/02:30am 22.5 CALM 0 0 1012.0 - 0.0 - - - - - - -
20/02:00am 23.0 CALM 0 0 1012.0 - 0.0 - - - - - - -
20/01:30am 23.0 CALM 0 0 1012.0 - 0.0 - - - - - - -
20/01:00am 23.5 N 1 4 1012.2 - 0.0 - - - - - - -
20/12:30am 23.4 CALM 0 0 1012.4 - 0.0 - - - - - - -
20/12:00am 24.3 SSW 2 4 1012.6 - 0.0 - - - - - - -
 
Date/Time
WST
Temp

°C
Wind Pressure Rain
since 9am
mm
Weather Cloud Vis
km
Sea
Height
m
Swell
Dir
 
Speed
knots
Gust
knots
hPa Trend Height
m
Period
s
Dir
19/11:30pm 24.5 CALM 0 1 1012.9 - 0.0 - - - - - - -
19/11:00pm 24.8 SW 1 3 1013.2 - 0.0 - - - - - - -
19/10:30pm 24.9 SSW 1 4 1013.3 - 0.0 - - - - - - -
19/10:00pm 25.0 CALM 0 0 1013.7 - 0.0 - - - - - - -
19/09:30pm 26.5 W 3 4 1014.0 - 0.0 - - - - - - -
19/09:00pm 27.2 W 3 5 1013.7 - 0.0 - - - - - - -
19/08:30pm 27.6 WNW 4 6 1013.5 - 0.0 - - - - - - -
19/08:00pm 27.8 NW 5 7 1013.3 - 0.0 - - - - - - -
19/07:30pm 28.1 NNW 6 8 1013.1 - 0.0 - - - - - - -
19/07:00pm 28.3 NNW 6 9 1012.6 - 0.0 - - - - - - -
19/06:30pm 28.5 NNW 7 11 1012.3 - 0.0 - - - - - - -
19/06:00pm 28.8 NNW 8 10 1011.9 - 0.0 - - - - - - -
19/05:30pm 29.1 N 9 14 1011.5 - 0.0 - - - - - - -
19/05:00pm 29.8 N 10 14 1011.1 - 0.0 - - - - - - -
19/04:30pm 30.7 N 10 13 1010.7 - 0.0 - - - - - - -
19/04:00pm 31.5 NNW 9 15 1010.5 - 0.0 - - - - - - -
19/03:30pm 32.3 N 10 15 1010.4 - 0.0 - - - - - - -
19/03:00pm 33.4 N 11 16 1010.4 - 0.0 - - - - - - -

Other Formats:

Comma delimited format used in spreadsheet applications
http://www.bom.gov.au/fwo/IDW60701/IDW60701.94100.axf

JavaScript Object Notation format (JSON) in row-major order
http://www.bom.gov.au/fwo/IDW60701/IDW60701.94100.json